Time;durP1;ratioP1;P1;durP2;ratioP2;P2;SDS_P1;SDS_P2;PMS_P1;PMS_P2;Temp;Humidity;BMP_temperature;BMP_pressure;BME280_temperature;BME280_humidity;BME280_pressure;Samples;Min_cycle;Max_cycle;Signal;HPM_P1;HPM_P2
2021/06/22 00:01:41;;;;;;;18.30;8.70;;;;;;;19.37;58.90;99825.50;4995374;28;20416;-77
2021/06/22 00:04:07;;;;;;;9.32;6.93;;;;;;;19.34;58.60;99825.81;5012111;28;20361;-78
2021/06/22 00:06:33;;;;;;;12.43;6.28;;;;;;;19.10;58.55;99800.34;4979863;28;20081;-78
2021/06/22 00:09:00;;;;;;;11.57;6.85;;;;;;;19.27;59.00;99836.47;4995572;28;20049;-77
2021/06/22 00:11:26;;;;;;;15.90;6.65;;;;;;;19.24;58.65;99830.53;4963517;28;20034;-78
2021/06/22 00:13:52;;;;;;;11.77;6.88;;;;;;;19.17;59.00;99831.19;5012090;28;20404;-78
2021/06/22 00:16:18;;;;;;;12.65;5.72;;;;;;;19.09;59.46;99828.47;4979258;28;20524;-79
2021/06/22 00:18:44;;;;;;;12.07;7.05;;;;;;;19.02;59.42;99827.44;4979440;28;20092;-77
2021/06/22 00:21:09;;;;;;;8.10;5.88;;;;;;;19.01;59.47;99819.47;4995945;28;20088;-78
2021/06/22 00:23:35;;;;;;;13.90;6.68;;;;;;;19.08;59.05;99821.34;4996128;28;20038;-79
2021/06/22 00:26:01;;;;;;;12.55;6.50;;;;;;;19.15;59.04;99833.22;4996081;28;20508;-78
2021/06/22 00:28:27;;;;;;;12.10;7.05;;;;;;;19.11;59.05;99817.47;5013686;28;20049;-78
2021/06/22 00:30:53;;;;;;;15.80;8.90;;;;;;;19.12;59.01;99827.28;4995871;28;20046;-78
2021/06/22 00:33:19;;;;;;;11.00;5.97;;;;;;;19.19;58.96;99841.03;4963554;28;20050;-77
2021/06/22 00:35:45;;;;;;;13.35;6.32;;;;;;;19.23;58.91;99834.25;4980004;28;20488;-78
2021/06/22 00:38:11;;;;;;;8.88;5.70;;;;;;;19.30;58.86;99840.72;4979781;28;20049;-76
2021/06/22 00:40:37;;;;;;;12.27;6.32;;;;;;;19.37;58.61;99841.75;4963302;28;20140;-78
2021/06/22 00:43:03;;;;;;;19.33;7.55;;;;;;;19.40;58.34;99844.09;4962917;28;20406;-79
2021/06/22 00:45:33;;;;;;;15.20;6.43;;;;;;;19.42;58.33;99833.94;4963372;28;20460;-77
2021/06/22 00:48:03;;;;;;;12.38;8.60;;;;;;;19.47;58.27;99831.56;4965323;28;20038;-77
2021/06/22 00:50:31;;;;;;;11.90;6.50;;;;;;;19.46;58.02;99835.31;4964152;28;20044;-79
2021/06/22 00:53:00;;;;;;;10.37;8.27;;;;;;;19.37;58.40;99837.16;4964235;28;20049;-77
2021/06/22 00:55:30;;;;;;;21.83;11.23;;;;;;;19.48;58.14;99838.69;4963672;28;20046;-78
2021/06/22 00:57:59;;;;;;;14.40;6.13;;;;;;;19.49;58.13;99840.41;4965205;28;20057;-78
2021/06/22 01:00:26;;;;;;;21.00;10.98;;;;;;;19.51;58.14;99838.34;4996190;28;20045;-78
2021/06/22 01:02:55;;;;;;;16.00;7.47;;;;;;;19.41;57.79;99816.00;4981436;28;20052;-78
2021/06/22 01:05:24;;;;;;;12.45;7.07;;;;;;;19.39;57.84;99815.31;4967966;28;20053;-78
2021/06/22 01:07:55;;;;;;;14.43;6.35;;;;;;;19.44;57.73;99831.91;4999835;28;20132;-78
2021/06/22 01:10:22;;;;;;;14.40;7.22;;;;;;;19.46;57.85;99835.31;4983115;28;20038;-78
2021/06/22 01:12:49;;;;;;;11.52;8.55;;;;;;;19.47;58.24;99836.16;4982703;28;20045;-78
2021/06/22 01:15:18;;;;;;;14.98;8.15;;;;;;;19.48;58.37;99838.69;4982673;28;20524;-77
2021/06/22 01:17:46;;;;;;;14.60;7.60;;;;;;;19.43;58.40;99830.22;4982799;28;20033;-78
2021/06/22 01:20:13;;;;;;;15.38;8.77;;;;;;;19.49;58.45;99826.00;4998678;28;20046;-79
2021/06/22 01:22:43;;;;;;;16.42;8.48;;;;;;;19.50;58.62;99824.97;4966686;28;20074;-81
2021/06/22 01:25:10;;;;;;;12.73;7.45;;;;;;;19.28;58.62;99807.50;4967138;28;20033;-77
2021/06/22 01:27:36;;;;;;;13.13;8.80;;;;;;;19.36;58.49;99823.78;4966341;28;20038;-78
2021/06/22 01:30:05;;;;;;;14.30;8.30;;;;;;;19.38;58.67;99838.03;4982086;28;20046;-77
2021/06/22 01:32:39;;;;;;;18.83;9.30;;;;;;;19.33;58.71;99807.84;4967908;28;20421;-77
2021/06/22 01:35:07;;;;;;;16.48;7.60;;;;;;;19.43;58.56;99819.38;4982489;28;20064;-79
2021/06/22 01:37:35;;;;;;;15.50;7.50;;;;;;;19.48;58.47;99824.28;4998425;28;20052;-77
2021/06/22 01:40:06;;;;;;;12.10;6.43;;;;;;;19.49;58.11;99824.13;4982381;28;20064;-77
2021/06/22 01:42:32;;;;;;;14.35;7.97;;;;;;;19.58;57.82;99828.53;4998286;28;20045;-77
2021/06/22 01:44:58;;;;;;;11.88;7.28;;;;;;;19.50;57.28;99812.25;5014570;28;20132;-78
2021/06/22 01:47:24;;;;;;;13.35;6.32;;;;;;;19.53;57.36;99803.81;4981897;28;20116;-79
2021/06/22 01:50:01;;;;;;;14.18;8.25;;;;;;;19.60;57.31;99815.66;4965574;28;20505;-76
2021/06/22 01:52:31;;;;;;;13.25;6.43;;;;;;;19.57;57.19;99809.72;4982990;28;20044;-76
2021/06/22 01:54:59;;;;;;;12.10;5.97;;;;;;;19.63;56.97;99820.78;4982019;28;20140;-77
2021/06/22 01:57:25;;;;;;;19.23;7.70;;;;;;;19.73;56.69;99825.19;4982232;28;20093;-76
2021/06/22 02:00:00;;;;;;;11.38;6.65;;;;;;;19.75;56.76;99820.44;4982693;28;20137;-79
2021/06/22 02:02:46;;;;;;;16.38;6.50;;;;;;;19.78;56.13;99818.25;4987618;28;20540;-77
2021/06/22 02:05:13;;;;;;;11.05;6.07;;;;;;;19.78;56.85;99817.38;4997472;28;20083;-79
2021/06/22 02:07:41;;;;;;;10.83;5.80;;;;;;;19.73;56.62;99811.63;4965278;28;20077;-78
2021/06/22 02:10:14;;;;;;;12.00;5.95;;;;;;;19.86;56.48;99801.13;4968301;28;20046;-78
2021/06/22 02:13:06;;;;;;;9.45;6.10;;;;;;;20.03;56.37;99823.63;4972523;28;20042;-78
2021/06/22 02:15:33;;;;;;;13.00;5.93;;;;;;;19.96;56.09;99815.31;4981267;28;20169;-79
2021/06/22 02:18:00;;;;;;;13.68;6.60;;;;;;;19.95;56.20;99810.91;4997603;28;20120;-78
2021/06/22 02:20:27;;;;;;;13.65;5.88;;;;;;;20.02;56.29;99824.66;4997122;28;20053;-77
2021/06/22 02:22:53;;;;;;;9.93;5.93;;;;;;;20.22;55.84;99831.38;4949095;28;20080;-78
2021/06/22 02:25:19;;;;;;;11.93;5.85;;;;;;;20.40;55.77;99827.63;5013425;28;20481;-76
2021/06/22 02:27:45;;;;;;;14.02;5.55;;;;;;;20.35;55.61;99817.28;4997126;28;20076;-78
2021/06/22 02:30:14;;;;;;;12.52;6.18;;;;;;;20.46;55.26;99825.06;4997229;28;20058;-78
2021/06/22 02:32:40;;;;;;;9.18;5.35;;;;;;;20.65;55.10;99837.41;4965258;28;20041;-78
2021/06/22 02:35:12;;;;;;;15.20;5.93;;;;;;;20.75;55.00;99839.91;5013446;28;20133;-77
2021/06/22 02:37:39;;;;;;;15.75;6.13;;;;;;;20.81;54.98;99836.50;4964991;28;20523;-78
2021/06/22 02:40:06;;;;;;;8.50;5.68;;;;;;;20.90;54.64;99830.00;4964395;28;20091;-77
2021/06/22 02:42:33;;;;;;;10.65;5.55;;;;;;;20.95;54.55;99833.03;4965215;28;20120;-78
2021/06/22 02:45:06;;;;;;;8.43;5.40;;;;;;;21.07;54.58;99830.75;4982675;28;20045;-78
2021/06/22 02:47:35;;;;;;;11.10;4.97;;;;;;;21.19;54.19;99829.31;4964902;28;20187;-78
2021/06/22 02:50:03;;;;;;;13.95;4.75;;;;;;;21.33;53.79;99830.47;4980691;28;20145;-79
2021/06/22 02:52:30;;;;;;;7.63;4.78;;;;;;;21.37;53.94;99825.53;4999389;28;20050;-84
2021/06/22 02:54:57;;;;;;;13.38;5.38;;;;;;;21.51;54.20;99841.91;4967752;28;20037;-85
2021/06/22 02:57:23;;;;;;;17.48;4.85;;;;;;;21.69;53.61;99841.56;4983020;28;20049;-85
2021/06/22 02:59:49;;;;;;;19.15;5.20;;;;;;;21.81;53.16;99836.53;4998020;28;20046;-84
2021/06/22 03:02:15;;;;;;;16.73;5.18;;;;;;;21.86;53.54;99841.44;4950061;28;20501;-83
2021/06/22 03:04:41;;;;;;;10.40;5.25;;;;;;;21.91;53.04;99839.84;4997977;28;20139;-85
2021/06/22 03:07:08;;;;;;;11.52;5.65;;;;;;;21.82;53.05;99846.41;4982714;28;20049;-83
2021/06/22 03:09:35;;;;;;;13.98;5.03;;;;;;;21.84;52.97;99833.47;4998249;28;20053;-84
2021/06/22 03:12:04;;;;;;;18.90;4.70;;;;;;;21.93;53.09;99836.97;4982339;28;20081;-90
2021/06/22 03:14:50;;;;;;;13.48;4.45;;;;;;;22.06;52.66;99835.28;4989093;28;20033;-84
2021/06/22 03:17:24;;;;;;;11.32;4.57;;;;;;;22.18;52.72;99846.59;4981901;28;20060;-87
2021/06/22 03:19:52;;;;;;;10.20;4.70;;;;;;;22.26;52.51;99848.41;4964326;28;20054;-83
2021/06/22 03:22:21;;;;;;;7.88;4.53;;;;;;;22.37;52.26;99845.22;4965909;28;20109;-85
2021/06/22 03:24:47;;;;;;;12.95;4.47;;;;;;;22.48;52.26;99855.66;4979883;28;20148;-86
2021/06/22 03:27:13;;;;;;;10.50;4.78;;;;;;;22.52;52.22;99853.41;4964222;28;20085;-87
2021/06/22 03:30:04;;;;;;;10.00;4.82;;;;;;;22.51;52.14;99844.38;4965160;28;20107;-87
2021/06/22 03:32:30;;;;;;;14.48;4.68;;;;;;;22.62;51.83;99853.13;5004014;28;20136;-88
2021/06/22 03:34:56;;;;;;;10.25;4.68;;;;;;;22.68;51.96;99863.25;4983550;28;20051;-88
2021/06/22 03:37:23;;;;;;;14.98;5.57;;;;;;;22.81;51.29;99860.72;5034733;28;20041;-89
2021/06/22 03:39:49;;;;;;;9.18;4.60;;;;;;;22.96;51.28;99864.31;4999968;28;20045;-88
2021/06/22 03:42:16;;;;;;;13.50;4.80;;;;;;;23.06;51.27;99861.28;4967485;28;20045;-87
2021/06/22 03:44:42;;;;;;;10.30;4.53;;;;;;;23.11;51.11;99855.25;5000989;28;20053;-90
2021/06/22 03:47:13;;;;;;;18.95;4.35;;;;;;;23.37;50.62;99874.66;5019595;28;20489;-85
2021/06/22 03:49:39;;;;;;;8.52;4.40;;;;;;;23.49;50.55;99862.19;4985239;28;20047;-86
2021/06/22 03:52:08;;;;;;;26.33;5.05;;;;;;;23.61;50.47;99864.41;4999876;28;20119;-87
2021/06/22 03:54:34;;;;;;;12.23;4.75;;;;;;;23.74;50.63;99870.03;5001106;28;20052;-87
2021/06/22 03:57:01;;;;;;;9.80;4.55;;;;;;;23.86;50.46;99863.00;5015897;28;20046;-85
2021/06/22 03:59:38;;;;;;;16.30;5.18;;;;;;;23.91;49.89;99866.00;5000819;28;20049;-82
2021/06/22 04:02:05;;;;;;;12.18;4.75;;;;;;;24.01;49.60;99852.00;5016150;28;20048;-83
2021/06/22 04:04:31;;;;;;;12.73;4.20;;;;;;;24.14;49.49;99859.47;4983156;28;20041;-83
2021/06/22 04:07:20;;;;;;;9.60;4.32;;;;;;;24.17;49.14;99845.41;5013056;28;20450;-79
2021/06/22 04:09:47;;;;;;;6.00;4.40;;;;;;;24.39;48.93;99863.47;4995710;28;20048;-83
2021/06/22 04:12:13;;;;;;;14.43;4.65;;;;;;;24.46;49.16;99853.44;5014996;28;20417;-83
2021/06/22 04:14:39;;;;;;;10.07;4.70;;;;;;;24.61;48.77;99857.94;4999027;28;20045;-82
2021/06/22 04:17:05;;;;;;;16.67;5.93;;;;;;;24.64;48.84;99857.53;4998877;28;20112;-81
2021/06/22 04:19:32;;;;;;;13.90;4.75;;;;;;;24.77;48.89;99863.06;5015675;28;20044;-81
2021/06/22 04:22:00;;;;;;;;;;;;;;;24.95;48.95;99862.53;4984008;28;20045;-82
2021/06/22 04:24:38;;;;;;;13.57;4.78;;;;;;;25.04;48.84;99864.03;5017547;28;19923;-80
2021/06/22 04:27:05;;;;;;;15.50;4.90;;;;;;;25.23;48.50;99865.19;5015236;28;20084;-81
2021/06/22 04:29:31;;;;;;;9.30;5.13;;;;;;;25.42;48.28;99871.75;4982603;28;20048;-82
2021/06/22 04:31:57;;;;;;;12.88;4.90;;;;;;;25.53;48.09;99868.41;4997847;28;20069;-79
2021/06/22 04:34:23;;;;;;;13.10;4.80;;;;;;;25.58;47.83;99871.41;5013950;28;20044;-81
2021/06/22 04:36:49;;;;;;;12.25;5.47;;;;;;;25.73;47.70;99854.78;5012855;28;20412;-84
2021/06/22 04:39:15;;;;;;;11.68;5.45;;;;;;;25.83;47.51;99865.34;4984733;28;20056;-83
2021/06/22 04:41:41;;;;;;;15.48;5.13;;;;;;;25.91;47.48;99857.78;5033821;28;20128;-82
2021/06/22 04:44:07;;;;;;;8.35;5.28;;;;;;;26.00;47.76;99854.84;5018152;28;20459;-81
2021/06/22 04:46:33;;;;;;;14.73;4.97;;;;;;;26.19;47.85;99853.97;5001749;28;20059;-83
2021/06/22 04:48:59;;;;;;;13.05;5.55;;;;;;;26.15;47.51;99863.69;5018315;28;20526;-82
2021/06/22 04:51:25;;;;;;;9.85;5.13;;;;;;;26.23;47.48;99855.25;5019399;28;20037;-82
2021/06/22 04:53:53;;;;;;;10.35;5.25;;;;;;;26.31;47.16;99848.69;5019005;28;20049;-83
2021/06/22 04:56:22;;;;;;;19.30;6.10;;;;;;;26.40;47.50;99867.47;5002377;28;20042;-82
2021/06/22 04:58:50;;;;;;;11.45;5.63;;;;;;;26.38;47.58;99857.75;5018705;28;20081;-83
2021/06/22 05:01:15;;;;;;;9.88;5.70;;;;;;;26.45;47.56;99855.00;5002020;28;20052;-82
2021/06/22 05:03:42;;;;;;;14.93;5.43;;;;;;;26.56;47.49;99851.66;5002010;28;20041;-82
2021/06/22 05:06:07;;;;;;;14.45;5.38;;;;;;;26.70;47.34;99847.78;5002002;28;20041;-82
2021/06/22 05:08:34;;;;;;;12.60;5.63;;;;;;;26.80;47.45;99850.94;5018428;28;20102;-82
2021/06/22 05:11:00;;;;;;;17.52;5.25;;;;;;;26.91;47.19;99845.84;5018584;28;20042;-82
2021/06/22 05:13:26;;;;;;;14.38;5.63;;;;;;;26.94;47.13;99845.41;5018516;28;20072;-82
2021/06/22 05:15:51;;;;;;;11.35;5.30;;;;;;;26.97;47.09;99851.31;5018629;28;20064;-82
2021/06/22 05:18:18;;;;;;;16.90;6.32;;;;;;;26.86;47.46;99844.59;5035341;28;20049;-83
2021/06/22 05:20:44;;;;;;;16.00;5.72;;;;;;;27.00;47.56;99853.59;4969773;28;20128;-81
2021/06/22 05:23:10;;;;;;;13.23;5.40;;;;;;;27.17;47.15;99853.97;5018889;28;20107;-82
2021/06/22 05:25:36;;;;;;;18.60;5.63;;;;;;;27.34;47.05;99851.56;5018566;28;20128;-80
2021/06/22 05:28:03;;;;;;;13.23;5.18;;;;;;;27.53;46.75;99852.50;5002287;28;20057;-80
2021/06/22 05:30:29;;;;;;;9.82;5.20;;;;;;;27.53;46.52;99841.53;5018440;28;20064;-81
2021/06/22 05:32:55;;;;;;;12.73;5.28;;;;;;;27.83;46.30;99856.38;5018144;28;20041;-81
2021/06/22 05:35:21;;;;;;;13.95;5.53;;;;;;;27.88;46.15;99843.88;5018250;28;20132;-82
2021/06/22 05:37:47;;;;;;;19.83;5.50;;;;;;;28.04;45.67;99852.38;5018575;28;20111;-83
2021/06/22 05:40:13;;;;;;;16.27;6.18;;;;;;;28.27;45.65;99849.00;4985582;28;20045;-82
2021/06/22 05:42:39;;;;;;;11.35;5.63;;;;;;;28.21;45.70;99847.16;5001866;28;20461;-82
2021/06/22 05:45:06;;;;;;;7.65;5.30;;;;;;;28.37;45.51;99842.16;5018406;28;20041;-84
2021/06/22 05:47:32;;;;;;;16.80;5.60;;;;;;;28.59;45.13;99848.94;5034325;28;20121;-82
2021/06/22 05:49:59;;;;;;;14.15;5.25;;;;;;;28.69;45.01;99843.72;5000841;28;20042;-82
2021/06/22 05:52:25;;;;;;;14.55;4.95;;;;;;;28.67;45.01;99837.63;5034439;28;20140;-81
2021/06/22 05:54:51;;;;;;;16.10;5.60;;;;;;;28.74;44.82;99843.91;5001402;28;20492;-82
2021/06/22 05:57:18;;;;;;;9.90;5.00;;;;;;;28.86;44.69;99840.38;5017459;28;20171;-82
2021/06/22 05:59:44;;;;;;;8.68;5.00;;;;;;;28.98;44.63;99842.16;5001311;28;20038;-82
2021/06/22 06:02:11;;;;;;;11.43;5.32;;;;;;;29.11;44.24;99851.31;5017319;28;20077;-82
2021/06/22 06:04:37;;;;;;;8.35;4.93;;;;;;;29.08;44.35;99841.63;5001036;28;20475;-81
2021/06/22 06:07:03;;;;;;;8.32;5.55;;;;;;;29.05;44.50;99861.34;5000589;28;20044;-82
2021/06/22 06:09:31;;;;;;;9.30;5.15;;;;;;;29.14;44.63;99851.69;5001175;28;20045;-83
2021/06/22 06:11:57;;;;;;;13.23;5.38;;;;;;;29.26;44.36;99843.47;4971691;28;20037;-82
2021/06/22 06:14:23;;;;;;;13.88;4.88;;;;;;;29.15;44.56;99847.88;5001364;28;20049;-81
2021/06/22 06:16:49;;;;;;;13.38;5.22;;;;;;;29.30;44.62;99828.19;5037099;28;20480;-82
2021/06/22 06:19:15;;;;;;;13.02;5.13;;;;;;;29.60;44.05;99841.13;5009331;28;20097;-83
2021/06/22 06:21:41;;;;;;;11.80;5.45;;;;;;;29.62;43.76;99864.59;5031285;28;20045;-83
2021/06/22 06:24:11;;;;;;;12.45;5.32;;;;;;;29.85;43.65;99846.47;5031144;28;20080;-85
2021/06/22 06:26:54;;;;;;;16.75;5.82;;;;;;;29.99;43.34;99832.22;5016551;28;20045;-84
2021/06/22 06:31:58;;;;;;;14.10;5.97;;;;;;;30.02;43.24;99841.94;5019528;28;20037;-81
2021/06/22 06:34:24;;;;;;;8.10;5.18;;;;;;;30.29;43.22;99847.88;5000461;28;20087;-82
2021/06/22 06:36:50;;;;;;;14.93;6.03;;;;;;;30.64;42.93;99844.25;5017919;28;20049;-84
2021/06/22 06:39:16;;;;;;;11.00;6.00;;;;;;;30.83;42.64;99836.69;5002371;28;20496;-81
2021/06/22 06:41:42;;;;;;;14.80;5.68;;;;;;;30.97;42.36;99843.59;5022109;28;20053;-80
2021/06/22 06:44:08;;;;;;;16.15;5.75;;;;;;;30.83;42.46;99836.69;4996819;28;20080;-84
2021/06/22 06:46:34;;;;;;;12.18;5.50;;;;;;;30.59;42.34;99822.91;4980759;28;20144;-84
2021/06/22 06:49:00;;;;;;;12.23;5.50;;;;;;;30.32;42.25;99825.31;4980932;28;20482;-84
2021/06/22 06:51:26;;;;;;;14.75;5.75;;;;;;;30.53;42.61;99842.34;4997063;28;20136;-84
2021/06/22 06:53:52;;;;;;;16.10;5.68;;;;;;;30.64;42.53;99827.69;5014252;28;20133;-83
2021/06/22 06:56:18;;;;;;;20.00;5.70;;;;;;;30.62;42.49;99841.72;4981213;28;20067;-83
2021/06/22 06:58:44;;;;;;;9.38;5.80;;;;;;;30.72;42.49;99832.81;5012841;28;20050;-83
2021/06/22 07:01:10;;;;;;;14.52;5.53;;;;;;;30.88;41.88;99836.78;4996006;28;20045;-83
2021/06/22 07:03:37;;;;;;;11.63;5.60;;;;;;;30.72;41.90;99836.41;4980490;28;20037;-81
2021/06/22 07:06:04;;;;;;;12.93;6.43;;;;;;;30.65;42.11;99843.16;4996302;28;20067;-82
2021/06/22 07:08:30;;;;;;;13.50;5.43;;;;;;;30.77;42.02;99834.88;4996797;28;20046;-82
2021/06/22 07:10:56;;;;;;;12.05;6.15;;;;;;;31.09;41.35;99841.66;4996058;28;20497;-82
2021/06/22 07:13:22;;;;;;;11.93;5.90;;;;;;;31.09;41.17;99832.53;4996243;28;20054;-80
2021/06/22 07:15:49;;;;;;;10.40;5.68;;;;;;;31.41;41.23;99838.44;5012729;28;20104;-79
2021/06/22 07:18:15;;;;;;;14.77;6.40;;;;;;;31.73;40.58;99824.09;5012289;28;20049;-81
2021/06/22 07:20:41;;;;;;;13.55;5.40;;;;;;;31.80;40.24;99836.66;4980061;28;20042;-80
2021/06/22 07:23:07;;;;;;;9.23;5.68;;;;;;;31.56;40.58;99797.28;4995625;28;20053;-79
2021/06/22 07:25:33;;;;;;;7.95;5.20;;;;;;;31.91;40.63;99832.19;5028318;28;20472;-80
2021/06/22 07:27:59;;;;;;;11.68;5.13;;;;;;;32.14;40.24;99829.22;5012548;28;20095;-80
2021/06/22 07:30:26;;;;;;;9.68;5.18;;;;;;;32.01;39.75;99824.06;4979723;28;20503;-82
2021/06/22 07:32:52;;;;;;;10.98;5.40;;;;;;;31.84;39.90;99834.22;4996163;28;20046;-81
2021/06/22 07:35:19;;;;;;;13.43;5.43;;;;;;;32.00;40.06;99830.66;5011907;28;20045;-81
2021/06/22 07:37:45;;;;;;;10.88;5.20;;;;;;;31.87;39.12;99819.94;4979672;28;20045;-80
2021/06/22 07:40:11;;;;;;;9.98;5.70;;;;;;;32.18;38.83;99812.97;4963477;28;20041;-81
2021/06/22 07:42:38;;;;;;;18.33;5.80;;;;;;;32.29;39.38;99833.31;4998684;28;20068;-82
2021/06/22 07:45:05;;;;;;;10.02;5.47;;;;;;;32.53;39.62;99829.28;5032010;28;20055;-81
2021/06/22 07:47:31;;;;;;;16.70;5.90;;;;;;;32.88;39.08;99822.56;5015059;28;20049;-81
2021/06/22 07:49:57;;;;;;;9.20;5.40;;;;;;;32.82;37.52;99827.19;4998601;28;20038;-81
2021/06/22 07:52:24;;;;;;;13.73;5.25;;;;;;;33.04;37.34;99838.28;4998816;28;20052;-80
2021/06/22 07:54:50;;;;;;;12.60;4.75;;;;;;;32.86;35.92;99833.03;4998704;28;20092;-82
2021/06/22 07:57:16;;;;;;;9.15;4.63;;;;;;;32.93;36.07;99827.31;5014777;28;20042;-81
2021/06/22 07:59:42;;;;;;;8.60;4.90;;;;;;;32.85;34.37;99836.91;4982770;28;20132;-81
2021/06/22 08:02:08;;;;;;;7.65;4.90;;;;;;;32.46;32.62;99836.94;4998558;28;20550;-80
2021/06/22 08:04:34;;;;;;;8.30;4.68;;;;;;;32.33;34.23;99834.50;4982318;28;20048;-80
2021/06/22 08:07:01;;;;;;;5.22;4.65;;;;;;;32.12;34.99;99828.66;4998724;28;20150;-81
2021/06/22 08:09:27;;;;;;;5.45;4.90;;;;;;;32.16;33.73;99835.34;5015359;28;20056;-83
2021/06/22 08:11:53;;;;;;;5.97;4.63;;;;;;;32.29;34.28;99838.88;5003489;28;20049;-83
2021/06/22 08:14:18;;;;;;;9.63;4.72;;;;;;;32.32;34.70;99817.06;5041392;28;20075;-82
2021/06/22 08:16:45;;;;;;;7.53;5.32;;;;;;;32.55;34.57;99816.03;5011798;28;20068;-82
2021/06/22 08:19:11;;;;;;;5.75;5.20;;;;;;;32.96;33.88;99818.53;5013511;28;20045;-84
2021/06/22 08:21:38;;;;;;;6.50;5.10;;;;;;;33.31;33.64;99824.47;5044206;28;20139;-82
2021/06/22 08:24:05;;;;;;;10.68;5.40;;;;;;;33.79;33.33;99830.25;4995755;28;20037;-82
2021/06/22 08:26:32;;;;;;;7.25;5.05;;;;;;;33.96;32.74;99819.84;5012557;28;20535;-81
2021/06/22 08:28:58;;;;;;;6.00;4.70;;;;;;;34.24;32.95;99809.53;4993721;28;20053;-82
2021/06/22 08:31:24;;;;;;;6.32;4.53;;;;;;;34.78;32.39;99814.88;5041172;28;20053;-81
2021/06/22 08:33:50;;;;;;;12.75;5.38;;;;;;;34.85;31.99;99820.19;5022975;28;20132;-81
2021/06/22 08:36:17;;;;;;;7.38;5.10;;;;;;;35.01;31.21;99808.88;5022259;28;20132;-81
2021/06/22 08:38:43;;;;;;;9.32;4.68;;;;;;;35.32;31.04;99814.53;5006179;28;20148;-82
2021/06/22 08:41:09;;;;;;;8.98;4.65;;;;;;;35.34;31.01;99806.75;5005514;28;20186;-82
2021/06/22 08:43:36;;;;;;;7.40;4.65;;;;;;;35.68;30.85;99812.66;5005402;28;20053;-82
2021/06/22 08:46:03;;;;;;;6.85;4.63;;;;;;;35.74;30.49;99810.72;5005008;28;20055;-82
2021/06/22 08:48:30;;;;;;;11.27;5.23;;;;;;;35.36;31.07;99810.09;5021519;28;20053;-83
2021/06/22 08:50:55;;;;;;;11.20;4.80;;;;;;;35.13;31.23;99816.13;5037750;28;20045;-82
2021/06/22 08:53:21;;;;;;;6.30;4.60;;;;;;;34.32;32.71;99823.75;5005253;28;20626;-81
2021/06/22 08:55:48;;;;;;;9.15;4.60;;;;;;;34.44;33.08;99815.22;5021504;28;20565;-82
2021/06/22 08:58:16;;;;;;;9.88;4.90;;;;;;;34.86;32.53;99806.00;5020964;28;20042;-82
2021/06/22 09:00:49;;;;;;;10.77;4.68;;;;;;;34.53;31.26;99813.66;4988847;28;20415;-82
2021/06/22 09:03:26;;;;;;;10.40;5.03;;;;;;;34.63;31.23;99814.78;5004930;28;20053;-83
2021/06/22 09:05:59;;;;;;;11.30;4.85;;;;;;;34.34;30.28;99815.16;5021883;28;20523;-81
2021/06/22 09:08:32;;;;;;;7.32;4.82;;;;;;;34.67;30.18;99802.03;5004905;28;20175;-81
2021/06/22 09:11:08;;;;;;;9.65;4.60;;;;;;;35.22;29.41;99809.78;5020978;28;20050;-81
2021/06/22 09:13:35;;;;;;;7.18;4.38;;;;;;;35.62;28.55;99805.44;5004151;28;20488;-81
2021/06/22 09:16:01;;;;;;;11.63;5.00;;;;;;;36.04;28.67;99820.22;5021256;28;20567;-80
2021/06/22 09:18:42;;;;;;;5.22;4.45;;;;;;;35.96;28.43;99814.06;5005125;28;20407;-81
2021/06/22 09:21:16;;;;;;;6.15;4.80;;;;;;;35.68;28.59;99818.22;5038000;28;20045;-81
2021/06/22 09:23:43;;;;;;;8.98;4.45;;;;;;;35.54;29.16;99805.97;5002209;28;20076;-82
2021/06/22 09:26:31;;;;;;;8.23;4.93;;;;;;;35.66;28.73;99816.84;5018166;28;20071;-80
2021/06/22 09:29:08;;;;;;;8.63;4.95;;;;;;;35.92;28.82;99823.22;5034632;28;20385;-81
2021/06/22 09:31:34;;;;;;;6.10;4.38;;;;;;;36.23;28.16;99812.97;5001562;28;20060;-83
2021/06/22 09:34:00;;;;;;;8.95;4.70;;;;;;;36.26;27.77;99817.97;5017955;28;20041;-81
2021/06/22 09:36:30;;;;;;;5.85;4.32;;;;;;;35.92;27.61;99801.84;5017254;28;20444;-81
2021/06/22 09:39:17;;;;;;;9.88;4.50;;;;;;;35.98;27.43;99806.28;5001510;28;20215;-83
2021/06/22 09:41:43;;;;;;;10.70;4.65;;;;;;;36.11;27.72;99804.06;5001069;28;20077;-81
2021/06/22 09:44:16;;;;;;;7.70;4.97;;;;;;;36.09;27.88;99803.50;5017493;28;20053;-82
2021/06/22 09:46:52;;;;;;;15.10;4.60;;;;;;;35.99;27.80;99805.19;5017629;28;20411;-82
2021/06/22 09:49:30;;;;;;;8.07;4.90;;;;;;;36.07;27.27;99789.03;5018125;28;20132;-82
2021/06/22 09:52:08;;;;;;;6.57;4.30;;;;;;;35.34;27.81;99801.19;5017807;28;20408;-81
2021/06/22 09:54:53;;;;;;;7.43;4.40;;;;;;;35.43;27.92;99798.69;5035081;28;20179;-81
2021/06/22 09:57:21;;;;;;;9.32;4.93;;;;;;;36.30;27.51;99796.81;5000951;28;20053;-80
2021/06/22 09:59:50;;;;;;;8.10;3.90;;;;;;;36.98;27.17;99795.50;4986021;28;20110;-80
2021/06/22 10:02:16;;;;;;;8.55;4.90;;;;;;;37.47;26.94;99784.38;5033530;28;20502;-82
2021/06/22 10:04:53;;;;;;;10.82;4.70;;;;;;;37.97;26.20;99795.41;5000964;28;20380;-81
2021/06/22 10:07:23;;;;;;;9.80;4.80;;;;;;;38.08;25.49;99794.19;5001037;28;20046;-83
2021/06/22 10:09:54;;;;;;;9.70;4.38;;;;;;;37.94;25.59;99798.78;5001237;28;20064;-81
2021/06/22 10:12:21;;;;;;;13.15;4.50;;;;;;;37.93;25.48;99778.44;5016746;28;20083;-81
2021/06/22 10:14:55;;;;;;;7.70;4.23;;;;;;;37.83;25.73;99787.69;5001343;28;20081;-81
2021/06/22 10:17:25;;;;;;;9.25;4.30;;;;;;;37.86;25.33;99784.31;5001028;28;20729;-81
2021/06/22 10:19:53;;;;;;;8.85;4.35;;;;;;;38.29;25.96;99778.91;5033570;28;20053;-82
2021/06/22 10:22:21;;;;;;;7.72;3.95;;;;;;;38.73;24.85;99789.03;5000442;28;20048;-81
2021/06/22 10:24:48;;;;;;;8.55;4.53;;;;;;;38.90;24.35;99773.78;5016886;28;20136;-81
2021/06/22 10:27:18;;;;;;;10.88;4.13;;;;;;;39.15;24.45;99781.78;5000332;28;20049;-80
2021/06/22 10:29:45;;;;;;;6.07;4.30;;;;;;;39.20;24.50;99756.56;5032945;28;20073;-81
2021/06/22 10:32:12;;;;;;;11.05;4.43;;;;;;;39.76;23.48;99786.50;4984077;28;20436;-81
2021/06/22 10:34:38;;;;;;;8.52;4.30;;;;;;;39.91;23.30;99771.41;4999625;28;20037;-81
2021/06/22 10:37:08;;;;;;;8.80;4.07;;;;;;;39.43;23.94;99766.03;5016773;28;20045;-81
2021/06/22 10:39:54;;;;;;;8.52;4.95;;;;;;;39.86;23.57;99781.84;5034766;28;20458;-80
2021/06/22 10:42:20;;;;;;;11.80;4.40;;;;;;;39.82;23.56;99785.25;5016471;28;20056;-82
2021/06/22 10:44:58;;;;;;;7.85;4.55;;;;;;;39.48;23.78;99763.13;5016031;28;20045;-80
2021/06/22 10:47:29;;;;;;;9.88;4.20;;;;;;;39.58;23.86;99776.13;5016250;28;20489;-80
2021/06/22 10:50:16;;;;;;;5.88;4.05;;;;;;;40.11;23.15;99767.41;5016869;28;20089;-80
2021/06/22 10:52:50;;;;;;;5.43;4.45;;;;;;;40.24;23.31;99765.78;5016917;28;20069;-81
2021/06/22 10:55:41;;;;;;;4.50;4.10;;;;;;;40.60;23.21;99776.31;5032484;28;20412;-81
2021/06/22 10:58:08;;;;;;;4.78;4.20;;;;;;;39.84;23.55;99775.75;4994082;28;20045;-82
2021/06/22 11:00:37;;;;;;;6.03;3.97;;;;;;;40.62;23.36;99769.22;5015897;28;20052;-81
2021/06/22 11:03:12;;;;;;;7.80;3.90;;;;;;;41.57;22.29;99760.97;5016022;28;20038;-78
2021/06/22 11:05:39;;;;;;;5.63;3.83;;;;;;;40.76;22.56;99767.25;5016287;28;20136;-81
2021/06/22 11:08:08;;;;;;;5.82;3.80;;;;;;;39.48;23.53;99759.50;5015803;28;20041;-81
2021/06/22 11:10:38;;;;;;;6.05;4.20;;;;;;;38.78;24.50;99765.75;5016375;28;20037;-80
2021/06/22 11:13:04;;;;;;;10.02;3.83;;;;;;;38.41;24.82;99744.19;4999632;28;20068;-81
2021/06/22 11:15:51;;;;;;;11.30;4.43;;;;;;;38.23;25.29;99760.53;4999375;28;20041;-78
2021/06/22 11:18:18;;;;;;;10.20;4.40;;;;;;;38.26;25.50;99753.53;5032336;28;20134;-81
2021/06/22 11:20:53;;;;;;;12.90;4.63;;;;;;;39.22;24.60;99743.09;5032310;28;20125;-81
2021/06/22 11:23:22;;;;;;;9.27;4.57;;;;;;;39.79;24.19;99741.09;4999374;28;20048;-81
2021/06/22 11:26:02;;;;;;;5.40;3.88;;;;;;;40.19;23.82;99741.50;5015840;28;20489;-82
2021/06/22 11:28:49;;;;;;;7.53;4.25;;;;;;;40.63;22.70;99726.06;4983185;28;20052;-81
2021/06/22 11:31:33;;;;;;;6.78;4.03;;;;;;;40.97;22.52;99741.59;5016136;28;20393;-82
2021/06/22 11:34:32;;;;;;;5.70;3.88;;;;;;;41.03;22.40;99742.31;5016926;28;20041;-81
2021/06/22 11:37:05;;;;;;;6.65;4.10;;;;;;;42.07;21.87;99746.75;5009718;28;20501;-82
2021/06/22 11:39:58;;;;;;;8.95;3.80;;;;;;;43.04;20.80;99732.72;4999633;28;20041;-80